createdAt,value
2018-01-11T00:01:34.922Z,94.20
2018-01-11T00:04:15.395Z,94.30
2018-01-11T00:06:41.762Z,94.20
2018-01-11T00:09:08.177Z,94.30
2018-01-11T00:11:34.551Z,94.40
2018-01-11T00:14:00.923Z,94.40
2018-01-11T00:16:27.292Z,94.10
2018-01-11T00:18:53.696Z,94.00
2018-01-11T00:21:20.088Z,94.00
2018-01-11T00:23:47.234Z,94.10
2018-01-11T00:26:14.369Z,94.10
2018-01-11T00:28:40.959Z,94.10
2018-01-11T00:31:07.354Z,94.00
2018-01-11T00:33:34.502Z,93.90
2018-01-11T00:36:02.411Z,94.10
2018-01-11T00:38:28.787Z,94.10
2018-01-11T00:40:55.153Z,94.30
2018-01-11T00:43:22.309Z,94.20
2018-01-11T00:45:48.711Z,94.30
2018-01-11T00:48:16.574Z,94.00
2018-01-11T00:50:44.494Z,93.90
2018-01-11T00:53:10.874Z,93.90
2018-01-11T00:55:37.259Z,94.00
2018-01-11T00:58:03.675Z,94.00
2018-01-11T01:00:30.077Z,93.70
2018-01-11T01:02:57.222Z,93.30
2018-01-11T01:05:23.615Z,93.20
2018-01-11T01:07:50.015Z,93.10
2018-01-11T01:10:17.115Z,93.10
2018-01-11T01:12:43.555Z,93.10
2018-01-11T01:15:09.934Z,93.10
2018-01-11T01:17:36.303Z,93.00
2018-01-11T01:20:02.713Z,93.00
2018-01-11T01:22:29.094Z,93.00
2018-01-11T01:24:56.957Z,92.80
2018-01-11T01:27:23.376Z,92.80
2018-01-11T01:29:49.778Z,93.00
2018-01-11T01:32:16.158Z,92.80
2018-01-11T01:34:42.525Z,93.00
2018-01-11T01:37:08.960Z,93.10
2018-01-11T01:39:35.368Z,93.20
2018-01-11T01:42:02.499Z,93.20
2018-01-11T01:44:28.898Z,93.20
2018-01-11T01:46:55.325Z,93.10
2018-01-11T01:49:21.716Z,93.10
2018-01-11T01:51:48.805Z,93.10
2018-01-11T01:54:15.234Z,93.00
2018-01-11T01:56:41.624Z,93.10
2018-01-11T01:59:08.733Z,93.40
2018-01-11T02:01:35.133Z,93.00
2018-01-11T02:04:01.523Z,93.10
2018-01-11T02:06:28.630Z,93.00
2018-01-11T02:08:55.035Z,93.00
2018-01-11T02:11:22.186Z,92.90
2018-01-11T02:13:48.582Z,92.90
2018-01-11T02:16:14.961Z,93.00
2018-01-11T02:18:41.355Z,93.10
2018-01-11T02:21:09.248Z,93.10
2018-01-11T02:23:36.391Z,93.00
2018-01-11T02:26:03.510Z,93.20
2018-01-11T02:28:29.883Z,93.20
2018-01-11T02:30:57.048Z,93.20
2018-01-11T02:33:23.387Z,93.20
2018-01-11T02:35:49.789Z,93.10
2018-01-11T02:38:17.030Z,93.20
2018-01-11T02:40:44.163Z,93.40
2018-01-11T02:43:12.018Z,93.40
2018-01-11T02:45:38.432Z,93.30
2018-01-11T02:48:04.852Z,93.30
2018-01-11T02:50:31.263Z,93.40
2018-01-11T02:52:57.663Z,93.30
2018-01-11T02:55:24.809Z,93.00
2018-01-11T02:57:52.024Z,92.90
2018-01-11T03:00:24.530Z,93.00
2018-01-11T03:02:50.933Z,93.00
2018-01-11T03:05:17.335Z,92.80
2018-01-11T03:07:43.700Z,92.90
2018-01-11T03:10:10.078Z,92.80
2018-01-11T03:12:37.251Z,92.70
2018-01-11T03:15:03.642Z,92.70
2018-01-11T03:17:30.022Z,93.00
2018-01-11T03:19:56.406Z,92.90
2018-01-11T03:22:22.773Z,93.00
2018-01-11T03:24:49.167Z,92.60
2018-01-11T03:27:17.074Z,92.80
2018-01-11T03:29:43.495Z,92.80
2018-01-11T03:32:10.618Z,92.80
2018-01-11T03:34:38.467Z,92.80
2018-01-11T03:37:04.868Z,92.80
2018-01-11T03:39:31.332Z,92.90
2018-01-11T03:41:57.734Z,92.70
2018-01-11T03:44:24.122Z,92.80
2018-01-11T03:46:50.486Z,92.70
2018-01-11T03:49:16.905Z,92.40
2018-01-11T03:51:43.342Z,92.50
2018-01-11T03:54:09.745Z,92.60
2018-01-11T03:56:36.131Z,92.60
2018-01-11T03:59:02.683Z,92.50
2018-01-11T04:01:29.080Z,92.50
2018-01-11T04:03:55.470Z,92.90
2018-01-11T04:06:35.607Z,93.00
2018-01-11T04:09:02.899Z,92.90
2018-01-11T04:11:29.302Z,92.70
2018-01-11T04:13:56.478Z,92.60
2018-01-11T04:16:22.868Z,92.60
2018-01-11T04:18:49.276Z,92.60
2018-01-11T04:21:15.654Z,92.60
2018-01-11T04:23:42.798Z,92.50
2018-01-11T04:26:09.910Z,92.60
2018-01-11T04:28:36.298Z,92.60
2018-01-11T04:31:02.696Z,92.60
2018-01-11T04:33:29.124Z,92.70
2018-01-11T04:35:56.297Z,92.60
2018-01-11T04:38:23.418Z,92.70
2018-01-11T04:40:49.802Z,92.70
2018-01-11T04:43:16.190Z,92.70
2018-01-11T04:45:42.566Z,92.60
2018-01-11T04:48:08.957Z,92.40
2018-01-11T04:50:35.564Z,92.40
2018-01-11T04:53:01.956Z,92.40
2018-01-11T04:55:29.061Z,92.30
2018-01-11T04:57:55.471Z,92.30
2018-01-11T05:00:21.881Z,92.50
2018-01-11T05:02:48.362Z,92.50
2018-01-11T05:05:14.762Z,92.50
2018-01-11T05:07:41.131Z,92.40
2018-01-11T05:10:07.522Z,92.40
2018-01-11T05:12:34.145Z,92.70
2018-01-11T05:15:00.543Z,93.00
2018-01-11T05:17:27.686Z,92.60
2018-01-11T05:19:54.085Z,92.60
2018-01-11T05:22:20.503Z,92.60
2018-01-11T05:24:46.890Z,92.60
2018-01-11T05:27:14.038Z,92.80
2018-01-11T05:29:40.446Z,92.80
2018-01-11T05:32:06.840Z,92.80
2018-01-11T05:34:33.220Z,92.60
2018-01-11T05:36:59.850Z,92.60
2018-01-11T05:39:26.258Z,92.60
2018-01-11T05:41:52.714Z,92.60
2018-01-11T05:44:19.112Z,92.60
2018-01-11T05:46:45.503Z,92.60
2018-01-11T05:49:11.882Z,93.20
2018-01-11T05:51:38.292Z,92.80
2018-01-11T05:54:04.730Z,92.70
2018-01-11T05:56:31.142Z,93.10
2018-01-11T05:58:58.342Z,94.00
2018-01-11T06:01:24.742Z,94.00
2018-01-11T06:03:51.213Z,94.60
2018-01-11T06:06:17.583Z,94.20
2018-01-11T06:08:43.978Z,94.00
2018-01-11T06:11:10.368Z,93.60
2018-01-11T06:13:36.752Z,93.40
2018-01-11T06:16:03.155Z,93.40
2018-01-11T06:18:29.553Z,93.20
2018-01-11T06:20:56.714Z,93.10
2018-01-11T06:23:23.086Z,93.10
2018-01-11T06:25:49.504Z,92.80
2018-01-11T06:28:15.927Z,93.00
2018-01-11T06:30:42.348Z,92.90
2018-01-11T06:33:08.723Z,92.90
2018-01-11T06:35:35.105Z,93.00
2018-01-11T06:38:01.522Z,93.20
2018-01-11T06:40:28.662Z,93.50
2018-01-11T06:42:55.808Z,93.20
2018-01-11T06:45:22.196Z,93.20
2018-01-11T06:47:48.604Z,93.10
2018-01-11T06:50:15.750Z,93.00
2018-01-11T06:52:42.154Z,93.00
2018-01-11T06:55:09.360Z,93.10
2018-01-11T06:57:35.764Z,93.10
2018-01-11T07:00:02.954Z,93.10
2018-01-11T07:02:29.371Z,93.10
2018-01-11T07:04:55.918Z,93.10
2018-01-11T07:07:22.337Z,93.10
2018-01-11T07:09:48.768Z,93.30
2018-01-11T07:12:15.163Z,93.50
2018-01-11T07:14:41.539Z,93.40
2018-01-11T07:17:08.022Z,93.10
2018-01-11T07:19:34.410Z,93.20
2018-01-11T07:22:00.791Z,93.20
2018-01-11T07:24:27.964Z,93.50
2018-01-11T07:26:55.087Z,93.80
2018-01-11T07:29:22.225Z,93.50
2018-01-11T07:31:48.662Z,93.70
2018-01-11T07:34:15.103Z,93.60
2018-01-11T07:36:42.246Z,93.50
2018-01-11T07:39:10.113Z,93.60
2018-01-11T07:41:37.254Z,93.60
2018-01-11T07:44:05.167Z,93.60
2018-01-11T07:46:31.542Z,93.60
2018-01-11T07:48:57.934Z,93.60
2018-01-11T07:51:24.384Z,93.50
2018-01-11T07:53:50.828Z,93.50
2018-01-11T07:56:17.982Z,93.50
2018-01-11T07:58:44.460Z,93.50
2018-01-11T08:01:11.566Z,93.40
2018-01-11T08:03:37.965Z,93.40
2018-01-11T08:06:04.328Z,93.40
2018-01-11T08:08:30.770Z,93.30
2018-01-11T08:10:57.150Z,93.50
2018-01-11T08:13:23.614Z,93.70
2018-01-11T08:15:49.998Z,93.70
2018-01-11T08:18:17.111Z,93.50
2018-01-11T08:20:43.468Z,93.80
2018-01-11T08:23:09.851Z,93.50
2018-01-11T08:25:36.249Z,93.30
2018-01-11T08:28:02.647Z,93.50
2018-01-11T08:30:29.034Z,93.50
2018-01-11T08:32:55.410Z,93.60
2018-01-11T08:35:21.766Z,93.40
2018-01-11T08:37:48.875Z,93.00
2018-01-11T08:40:15.275Z,93.00
2018-01-11T08:42:41.674Z,93.20
2018-01-11T08:45:08.037Z,93.20
2018-01-11T08:47:34.394Z,93.20
2018-01-11T08:50:00.830Z,93.20
2018-01-11T08:52:27.221Z,93.00
2018-01-11T08:54:54.356Z,92.80
2018-01-11T08:57:21.460Z,92.60
2018-01-11T08:59:47.820Z,92.60
2018-01-11T09:02:14.198Z,92.50
2018-01-11T09:04:40.558Z,92.50
2018-01-11T09:07:07.309Z,92.50
2018-01-11T09:09:34.055Z,92.30
2018-01-11T09:12:00.425Z,92.50
2018-01-11T09:14:27.611Z,91.80
2018-01-11T09:16:54.079Z,91.80
2018-01-11T09:19:20.450Z,91.70
2018-01-11T09:21:46.853Z,91.40
2018-01-11T09:24:13.223Z,91.60
2018-01-11T09:26:39.598Z,91.60
2018-01-11T09:29:07.504Z,91.60
2018-01-11T09:31:33.897Z,91.60
2018-01-11T09:34:00.309Z,91.60
2018-01-11T09:36:26.715Z,91.50
2018-01-11T09:38:53.086Z,91.30
2018-01-11T09:41:19.465Z,91.30
2018-01-11T09:43:45.848Z,91.10
2018-01-11T09:46:12.233Z,91.00
2018-01-11T09:48:38.594Z,90.90
2018-01-11T09:51:04.950Z,91.00
2018-01-11T09:53:31.325Z,90.80
2018-01-11T09:55:58.438Z,90.70
2018-01-11T09:58:25.568Z,90.50
2018-01-11T10:00:51.949Z,90.50
2018-01-11T10:03:19.079Z,90.80
2018-01-11T10:05:45.436Z,90.80
2018-01-11T10:08:12.550Z,90.90
2018-01-11T10:10:39.708Z,90.70
2018-01-11T10:13:06.070Z,90.80
2018-01-11T10:15:32.547Z,91.00
2018-01-11T10:17:58.914Z,90.50
2018-01-11T10:20:26.094Z,90.80
2018-01-11T10:22:52.479Z,90.80
2018-01-11T10:25:20.316Z,90.50
2018-01-11T10:27:46.699Z,90.40
2018-01-11T10:30:13.834Z,90.20
2018-01-11T10:32:40.934Z,90.50
2018-01-11T10:35:07.392Z,90.40
2018-01-11T10:37:33.810Z,90.10
2018-01-11T10:40:00.189Z,90.00
2018-01-11T10:42:27.320Z,90.30
2018-01-11T10:44:53.720Z,90.60
2018-01-11T10:47:20.094Z,90.60
2018-01-11T10:49:47.946Z,90.10
2018-01-11T10:52:14.318Z,90.10
2018-01-11T10:54:40.688Z,90.40
2018-01-11T10:57:07.820Z,90.40
2018-01-11T10:59:34.214Z,90.40
2018-01-11T11:02:07.342Z,90.20
2018-01-11T11:04:33.722Z,90.20
2018-01-11T11:07:00.829Z,89.50
2018-01-11T11:09:27.179Z,89.60
2018-01-11T11:11:53.570Z,89.00
2018-01-11T11:14:19.955Z,89.20
2018-01-11T11:16:47.045Z,89.80
2018-01-11T11:19:14.498Z,90.00
2018-01-11T11:21:40.892Z,90.00
2018-01-11T11:24:07.244Z,90.00
2018-01-11T11:26:34.357Z,90.00
2018-01-11T11:29:00.745Z,90.00
2018-01-11T11:31:27.846Z,89.40
2018-01-11T11:33:54.243Z,89.30
2018-01-11T11:36:20.701Z,88.40
2018-01-11T11:38:47.098Z,87.70
2018-01-11T11:41:13.481Z,88.00
2018-01-11T11:43:40.603Z,88.50
2018-01-11T11:46:07.014Z,88.60
2018-01-11T11:48:39.342Z,87.90
2018-01-11T11:51:06.467Z,88.30
2018-01-11T11:53:32.847Z,88.40
2018-01-11T11:55:59.942Z,88.90
2018-01-11T11:58:26.319Z,88.80
2018-01-11T12:00:53.455Z,89.30
2018-01-11T12:03:19.821Z,89.20
2018-01-11T12:05:46.207Z,89.30
2018-01-11T12:08:12.592Z,88.90
2018-01-11T12:10:38.973Z,88.50
2018-01-11T12:13:05.377Z,88.30
2018-01-11T12:15:31.747Z,88.10
2018-01-11T12:17:58.115Z,87.80
2018-01-11T12:20:24.494Z,88.20
2018-01-11T12:22:50.872Z,88.10
2018-01-11T12:25:17.346Z,87.80
2018-01-11T12:27:43.815Z,88.40
2018-01-11T12:30:10.954Z,88.00
2018-01-11T12:32:37.324Z,88.00
2018-01-11T12:35:03.725Z,87.60
2018-01-11T12:37:30.187Z,88.30
2018-01-11T12:39:56.540Z,88.90
2018-01-11T12:42:22.978Z,88.20
2018-01-11T12:44:49.393Z,87.90
2018-01-11T12:47:15.784Z,87.60
2018-01-11T12:49:42.144Z,87.40
2018-01-11T12:52:09.273Z,87.10
2018-01-11T12:54:35.638Z,87.10
2018-01-11T12:57:02.006Z,86.40
2018-01-11T12:59:28.991Z,87.70
2018-01-11T13:01:56.137Z,88.90
2018-01-11T13:04:23.254Z,88.70
2018-01-11T13:06:49.629Z,88.70
2018-01-11T13:09:16.011Z,88.10
2018-01-11T13:11:42.410Z,87.70
2018-01-11T13:14:08.820Z,87.40
2018-01-11T13:16:35.980Z,87.70
2018-01-11T13:19:02.372Z,87.70
2018-01-11T13:21:29.630Z,87.00
2018-01-11T13:23:56.784Z,88.10
2018-01-11T13:26:24.642Z,88.20
2018-01-11T13:28:52.610Z,88.00
2018-01-11T13:31:19.780Z,87.70
2018-01-11T13:33:46.162Z,87.70
2018-01-11T13:36:12.558Z,87.60
2018-01-11T13:38:39.752Z,88.70
2018-01-11T13:41:06.147Z,88.10
2018-01-11T13:43:32.550Z,87.80
2018-01-11T13:45:58.934Z,87.80
2018-01-11T13:48:25.374Z,87.20
2018-01-11T13:50:51.844Z,86.50
2018-01-11T13:53:18.234Z,86.40
2018-01-11T13:55:45.743Z,86.50
2018-01-11T13:58:12.869Z,87.00
2018-01-11T14:00:39.811Z,87.00
2018-01-11T14:03:06.946Z,87.50
2018-01-11T14:05:33.564Z,87.50
2018-01-11T14:07:59.982Z,87.60
2018-01-11T14:10:27.283Z,87.70
2018-01-11T14:12:53.721Z,87.60
2018-01-11T14:15:21.599Z,87.70
2018-01-11T14:17:48.716Z,88.60
2018-01-11T14:20:15.116Z,88.60
2018-01-11T14:22:42.259Z,88.20
2018-01-11T14:25:09.375Z,88.40
2018-01-11T14:27:35.757Z,88.40
2018-01-11T14:30:02.173Z,88.90
2018-01-11T14:32:29.290Z,88.90
2018-01-11T14:34:55.682Z,88.80
2018-01-11T14:37:22.099Z,89.10
2018-01-11T14:39:48.478Z,89.00
2018-01-11T14:42:14.865Z,88.90
2018-01-11T14:44:41.289Z,88.80
2018-01-11T14:47:08.416Z,88.80
2018-01-11T14:49:35.622Z,88.90
2018-01-11T14:52:02.035Z,88.90
2018-01-11T14:54:28.448Z,88.70
2018-01-11T14:56:55.599Z,88.90
2018-01-11T14:59:22.016Z,88.90
2018-01-11T15:01:49.423Z,89.50
2018-01-11T15:04:15.826Z,89.50
2018-01-11T15:06:42.236Z,89.50
2018-01-11T15:09:09.364Z,89.80
2018-01-11T15:11:37.282Z,90.10
2018-01-11T15:14:03.838Z,90.10
2018-01-11T15:16:30.242Z,90.10
2018-01-11T15:18:56.651Z,90.20
2018-01-11T15:21:23.770Z,90.20
2018-01-11T15:23:50.203Z,90.00
2018-01-11T15:26:16.603Z,90.10
2018-01-11T15:28:42.990Z,90.10
2018-01-11T15:31:09.395Z,90.10
2018-01-11T15:33:35.778Z,90.10
2018-01-11T15:36:02.910Z,90.20
2018-01-11T15:38:29.314Z,90.20
2018-01-11T15:40:55.727Z,90.30
2018-01-11T15:43:22.114Z,90.30
2018-01-11T15:45:49.246Z,90.50
2018-01-11T15:48:16.408Z,90.40
2018-01-11T15:50:43.584Z,90.30
2018-01-11T15:53:09.967Z,90.30
2018-01-11T15:55:37.149Z,90.60
2018-01-11T15:58:04.310Z,90.70
2018-01-11T16:00:30.775Z,90.60
2018-01-11T16:02:57.190Z,90.60
2018-01-11T16:05:24.066Z,90.50
2018-01-11T16:07:50.453Z,90.50
2018-01-11T16:10:17.573Z,90.40
2018-01-11T16:12:45.426Z,90.30
2018-01-11T16:15:12.619Z,90.40
2018-01-11T16:17:38.998Z,90.40
2018-01-11T16:20:05.432Z,90.30
2018-01-11T16:22:31.892Z,90.40
2018-01-11T16:24:59.038Z,90.30
2018-01-11T16:27:26.198Z,90.30
2018-01-11T16:29:53.350Z,90.30
2018-01-11T16:32:20.499Z,90.50
2018-01-11T16:34:47.636Z,90.60
2018-01-11T16:37:14.787Z,90.70
2018-01-11T16:39:41.173Z,90.70
2018-01-11T16:42:07.608Z,90.60
2018-01-11T16:44:33.983Z,90.70
2018-01-11T16:47:00.357Z,90.80
2018-01-11T16:49:26.742Z,91.00
2018-01-11T16:51:53.971Z,90.90
2018-01-11T16:54:21.996Z,91.00
2018-01-11T16:56:48.383Z,91.00
2018-01-11T16:59:14.792Z,91.00
2018-01-11T17:01:41.187Z,90.90
2018-01-11T17:04:08.338Z,91.00
2018-01-11T17:06:35.551Z,91.10
2018-01-11T17:09:01.974Z,91.10
2018-01-11T17:11:29.699Z,91.20
2018-01-11T17:13:56.127Z,91.20
2018-01-11T17:16:22.625Z,91.20
2018-01-11T17:18:49.609Z,91.00
2018-01-11T17:21:16.161Z,91.10
2018-01-11T17:23:43.462Z,91.00
2018-01-11T17:26:10.535Z,90.90
2018-01-11T17:28:36.937Z,90.90
2018-01-11T17:31:04.130Z,90.80
2018-01-11T17:33:30.531Z,90.80
2018-01-11T17:35:57.666Z,91.30
2018-01-11T17:38:24.094Z,91.20
2018-01-11T17:40:51.220Z,90.90
2018-01-11T17:43:17.630Z,90.90
2018-01-11T17:45:44.796Z,90.90
2018-01-11T17:48:11.204Z,90.80
2018-01-11T17:50:37.682Z,90.90
2018-01-11T17:53:04.174Z,90.80
2018-01-11T17:55:30.578Z,90.70
2018-01-11T17:57:57.741Z,91.00
2018-01-11T18:00:24.246Z,90.70
2018-01-11T18:02:50.695Z,90.60
2018-01-11T18:05:17.871Z,90.60
2018-01-11T18:07:44.287Z,90.60
2018-01-11T18:10:11.404Z,90.40
2018-01-11T18:12:37.782Z,90.40
2018-01-11T18:15:04.174Z,90.40
2018-01-11T18:17:32.046Z,90.40
2018-01-11T18:19:59.927Z,90.30
2018-01-11T18:22:27.038Z,90.20
2018-01-11T18:24:53.464Z,90.20
2018-01-11T18:27:19.905Z,90.20
2018-01-11T18:29:46.295Z,90.40
2018-01-11T18:32:12.703Z,90.50
2018-01-11T18:34:39.859Z,90.50
2018-01-11T18:37:07.159Z,90.40
2018-01-11T18:39:33.543Z,90.40
2018-01-11T18:42:00.667Z,90.30
2018-01-11T18:44:27.786Z,90.30
2018-01-11T18:46:54.198Z,90.30
2018-01-11T18:49:20.631Z,90.10
2018-01-11T18:51:47.029Z,90.10
2018-01-11T18:54:14.173Z,90.20
2018-01-11T18:56:41.341Z,90.30
2018-01-11T18:59:08.537Z,90.40
2018-01-11T19:01:34.916Z,90.40
2018-01-11T19:04:02.061Z,90.30
2018-01-11T19:06:29.202Z,90.30
2018-01-11T19:08:55.603Z,90.30
2018-01-11T19:11:22.038Z,90.30
2018-01-11T19:13:48.481Z,90.30
2018-01-11T19:16:15.651Z,90.40
2018-01-11T19:18:42.791Z,90.40
2018-01-11T19:21:09.191Z,90.40
2018-01-11T19:23:35.586Z,90.40
2018-01-11T19:26:02.000Z,90.30
2018-01-11T19:28:28.461Z,90.40
2018-01-11T19:30:54.858Z,90.50
2018-01-11T19:33:22.732Z,90.20
2018-01-11T19:35:49.106Z,90.20
2018-01-11T19:38:15.506Z,90.20
2018-01-11T19:40:42.626Z,90.40
2018-01-11T19:43:09.017Z,90.40
2018-01-11T19:45:35.406Z,90.50
2018-01-11T19:48:02.550Z,90.50
2018-01-11T19:50:29.699Z,90.40
2018-01-11T19:52:56.102Z,90.50
2018-01-11T19:55:22.482Z,90.30
2018-01-11T19:57:49.720Z,90.30
2018-01-11T20:00:17.648Z,90.70
2018-01-11T20:02:44.045Z,90.40
2018-01-11T20:05:11.216Z,90.40
2018-01-11T20:07:37.622Z,90.40
2018-01-11T20:10:04.753Z,90.30
2018-01-11T20:12:31.922Z,90.30
2018-01-11T20:14:59.051Z,90.30
2018-01-11T20:17:25.416Z,90.30
2018-01-11T20:19:51.838Z,90.30
2018-01-11T20:22:18.244Z,90.50
2018-01-11T20:24:44.651Z,90.40
2018-01-11T20:27:11.078Z,90.40
2018-01-11T20:29:37.862Z,90.40
2018-01-11T20:32:05.039Z,90.40
2018-01-11T20:34:31.478Z,90.40
2018-01-11T20:36:57.911Z,90.30
2018-01-11T20:39:24.372Z,90.30
2018-01-11T20:41:50.818Z,90.30
2018-01-11T20:44:17.195Z,90.20
2018-01-11T20:46:44.380Z,90.20
2018-01-11T20:49:10.766Z,90.20
2018-01-11T20:51:37.920Z,90.10
2018-01-11T20:54:05.053Z,90.20
2018-01-11T20:56:32.182Z,90.70
2018-01-11T20:58:58.610Z,90.40
2018-01-11T21:01:25.038Z,90.50
2018-01-11T21:03:51.430Z,90.50
2018-01-11T21:06:17.835Z,90.60
2018-01-11T21:08:45.007Z,90.40
2018-01-11T21:11:11.391Z,90.40
2018-01-11T21:13:37.777Z,90.50
2018-01-11T21:16:04.163Z,90.50
2018-01-11T21:18:30.575Z,90.40
2018-01-11T21:20:56.975Z,90.40
2018-01-11T21:23:23.374Z,90.40
2018-01-11T21:25:50.513Z,90.40
2018-01-11T21:28:16.898Z,90.40
2018-01-11T21:30:43.342Z,90.50
2018-01-11T21:33:09.718Z,90.40
2018-01-11T21:35:38.243Z,90.50
2018-01-11T21:38:04.706Z,90.70
2018-01-11T21:40:31.094Z,90.60
2018-01-11T21:42:58.294Z,90.50
2018-01-11T21:45:24.682Z,90.50
2018-01-11T21:47:51.824Z,90.60
2018-01-11T21:50:18.940Z,90.50
2018-01-11T21:52:45.335Z,90.60
2018-01-11T21:55:11.734Z,90.60
2018-01-11T21:57:38.951Z,90.70
2018-01-11T22:00:05.355Z,90.70
2018-01-11T22:02:31.738Z,90.70
2018-01-11T22:04:58.856Z,90.80
2018-01-11T22:07:25.273Z,90.80
2018-01-11T22:09:52.463Z,90.80
2018-01-11T22:12:19.612Z,91.10
2018-01-11T22:14:47.474Z,90.90
2018-01-11T22:17:13.850Z,90.80
2018-01-11T22:19:40.275Z,90.70
2018-01-11T22:22:06.699Z,90.60
2018-01-11T22:24:33.073Z,90.40
2018-01-11T22:26:59.451Z,90.50
2018-01-11T22:29:26.552Z,90.80
2018-01-11T22:31:52.926Z,90.80
2018-01-11T22:34:20.353Z,91.00
2018-01-11T22:36:46.745Z,91.00
2018-01-11T22:39:13.955Z,90.80
2018-01-11T22:41:40.350Z,90.80
2018-01-11T22:44:06.735Z,90.60
2018-01-11T22:46:33.866Z,90.70
2018-01-11T22:49:01.008Z,90.80
2018-01-11T22:51:27.467Z,90.60
2018-01-11T22:53:53.870Z,90.70
2018-01-11T22:56:20.251Z,90.80
2018-01-11T22:58:46.650Z,90.70
2018-01-11T23:01:13.043Z,90.80
2018-01-11T23:03:39.423Z,91.00
2018-01-11T23:06:06.559Z,90.60
2018-01-11T23:08:33.696Z,90.60
2018-01-11T23:11:00.084Z,90.60
2018-01-11T23:13:26.463Z,90.50
2018-01-11T23:15:52.867Z,90.60
2018-01-11T23:18:19.260Z,90.60
2018-01-11T23:20:46.410Z,90.70
2018-01-11T23:23:13.550Z,90.60
2018-01-11T23:25:40.676Z,90.50
2018-01-11T23:28:07.070Z,90.50
2018-01-11T23:30:33.486Z,90.40
2018-01-11T23:32:59.866Z,90.50
2018-01-11T23:35:26.252Z,90.60
2018-01-11T23:37:52.641Z,90.80
2018-01-11T23:40:19.022Z,90.70
2018-01-11T23:42:45.407Z,90.70
2018-01-11T23:45:13.418Z,90.50
2018-01-11T23:47:39.812Z,90.70
2018-01-11T23:50:06.182Z,90.30
2018-01-11T23:52:32.543Z,90.50
2018-01-11T23:54:58.932Z,90.70
2018-01-11T23:57:26.057Z,91.10
2018-01-11T23:59:53.179Z,91.10
